Skip Navigation LinksHome page > Weather > Current weather Skip Navigation Links

Current Weather

Indira Gandhi Intl Apt, New Delhi, India

For information only: do not use for flight planning or navigation.
Latest weather
Observation time Wednesday, March 29, 2017 12:30 PM IST
Local time Wednesday, March 29, 2017 12:43 PM IST
Flight conditions Instrument Meteorological Conditions
Winds
Wind direction Northwest (320°)
Wind speed 9 mph
Wind gusting to 21 mph
Visibility 2.8 mi.
Present weather haze
Sky condition
Ceiling unlimited
Temperature 99°F
Dewpoint 54°F
Altimeter 29.83 in.Hg
Derived measurements
Relative humidity 22%
Heat index 99°F
Density altitude 3557 ft.
Remarks
No significant changes expected in the next two hours.
METAR VIDP 290700Z 32008G18KT 4500 HZ NSC 37/12 Q1010 NOSIG

Settings

Location code

InnerDrive.Weather 4.0.6144.1 Release CLR 4.0.30319.34209
Copyright ©2015 Inner Drive Technology. All rights reserved. Portions Copyright ©1986-2015 David Braverman.

Find weather

Site navigation


Skip Navigation Links

Place info

Page info

PayPal - The safer, easier way to pay online!

Return home.

Copyright ©2017 Inner Drive Technology. Purveyors of fine, hand-crafted computer software. Page printed 2017-03-29T07:13:25 UTC.